Time;durP1;ratioP1;P1;durP2;ratioP2;P2;SDS_P1;SDS_P2;PMS_P1;PMS_P2;Temp;Humidity;BMP_temperature;BMP_pressure;BME280_temperature;BME280_humidity;BME280_pressure;Samples;Min_cycle;Max_cycle;Signal;HPM_P1;HPM_P2
2023/09/28 00:01:16;;;;;;;7.85;5.63;;;;;;;18.78;100.00;101225.25;4987917;28;20091;-74
2023/09/28 00:03:42;;;;;;;9.18;5.43;;;;;;;18.78;100.00;101220.69;4991622;28;20161;-74
2023/09/28 00:06:08;;;;;;;8.35;5.10;;;;;;;18.87;100.00;101217.13;4992786;28;20041;-74
2023/09/28 00:08:33;;;;;;;7.53;5.40;;;;;;;18.89;100.00;101228.66;4980297;28;20042;-74
2023/09/28 00:10:59;;;;;;;8.57;5.20;;;;;;;18.86;100.00;101219.97;4984468;28;20049;-74
2023/09/28 00:13:24;;;;;;;8.88;4.82;;;;;;;18.88;100.00;101226.13;4992901;28;20049;-74
2023/09/28 00:15:50;;;;;;;10.32;5.13;;;;;;;18.85;100.00;101227.22;4986268;28;20034;-74
2023/09/28 00:18:16;;;;;;;9.45;5.40;;;;;;;18.80;100.00;101226.81;4984860;28;20889;-74
2023/09/28 00:20:41;;;;;;;8.77;5.43;;;;;;;18.87;100.00;101225.22;4987860;28;20601;-74
2023/09/28 00:23:07;;;;;;;9.13;5.63;;;;;;;18.81;100.00;101242.00;4989488;28;20872;-75
2023/09/28 00:25:32;;;;;;;7.78;5.10;;;;;;;18.85;100.00;101246.16;4986896;28;20101;-74
2023/09/28 00:27:58;;;;;;;7.13;5.30;;;;;;;18.87;100.00;101251.41;4990464;28;20065;-74
2023/09/28 00:30:26;;;;;;;8.15;4.80;;;;;;;18.87;100.00;101252.25;4986760;28;20034;-74
2023/09/28 00:32:54;;;;;;;7.13;5.03;;;;;;;18.85;100.00;101251.56;4989156;28;20170;-73
2023/09/28 00:35:20;;;;;;;6.38;4.78;;;;;;;18.78;100.00;101253.13;4987392;28;20108;-74
2023/09/28 00:37:46;;;;;;;10.27;4.75;;;;;;;18.86;100.00;101261.38;4988371;28;20050;-74
2023/09/28 00:40:21;;;;;;;7.10;4.82;;;;;;;18.77;100.00;101273.00;4994225;28;20124;-74
2023/09/28 00:42:48;;;;;;;10.60;4.75;;;;;;;18.76;100.00;101274.00;4991459;28;20041;-74
2023/09/28 00:45:14;;;;;;;8.20;4.32;;;;;;;18.74;100.00;101276.00;4987669;28;20501;-74
2023/09/28 00:47:40;;;;;;;5.93;4.68;;;;;;;18.72;100.00;101274.41;4977746;28;20076;-73
2023/09/28 00:50:11;;;;;;;6.80;5.07;;;;;;;18.68;100.00;101262.19;4991497;28;20031;-74
2023/09/28 00:52:40;;;;;;;8.55;4.97;;;;;;;18.62;100.00;101272.53;4947649;28;20094;-75
2023/09/28 00:55:07;;;;;;;8.90;5.53;;;;;;;18.58;100.00;101276.50;4986732;28;20042;-74
2023/09/28 00:57:33;;;;;;;6.90;4.97;;;;;;;18.53;100.00;101276.06;4983996;28;20049;-74
2023/09/28 01:00:18;;;;;;;7.75;4.85;;;;;;;18.50;100.00;101280.88;4971788;28;20035;-75
2023/09/28 01:02:52;;;;;;;8.13;5.22;;;;;;;18.48;100.00;101275.63;4988670;28;20035;-74
2023/09/28 01:05:34;;;;;;;6.03;5.15;;;;;;;18.41;100.00;101260.09;4984015;28;20043;-75
2023/09/28 01:08:14;;;;;;;8.10;5.30;;;;;;;18.35;100.00;101270.47;4951614;28;20146;-74
2023/09/28 01:10:41;;;;;;;11.02;6.35;;;;;;;18.36;100.00;101277.56;4965091;28;20132;-73
2023/09/28 01:13:11;;;;;;;13.02;5.90;;;;;;;18.29;100.00;101268.31;4985796;28;20893;-73
2023/09/28 01:15:48;;;;;;;11.45;5.32;;;;;;;18.17;100.00;101261.28;4990691;28;20088;-73
2023/09/28 01:18:16;;;;;;;6.97;4.95;;;;;;;18.25;100.00;101271.44;4991778;28;20105;-74
2023/09/28 01:20:45;;;;;;;10.07;4.78;;;;;;;18.15;100.00;101274.09;4990344;28;20049;-75
2023/09/28 01:23:10;;;;;;;6.07;5.00;;;;;;;18.07;100.00;101272.09;4990714;28;20125;-75
2023/09/28 01:25:37;;;;;;;8.82;5.35;;;;;;;18.13;100.00;101273.38;4973455;28;20085;-74
2023/09/28 01:28:03;;;;;;;8.80;4.97;;;;;;;18.11;100.00;101270.78;4971539;28;20101;-74
2023/09/28 01:30:29;;;;;;;8.38;4.85;;;;;;;18.02;100.00;101277.03;4989405;28;20038;-74
2023/09/28 01:32:55;;;;;;;7.15;4.75;;;;;;;18.04;100.00;101279.59;4986197;28;21177;-74
2023/09/28 01:35:21;;;;;;;7.30;4.65;;;;;;;18.02;100.00;101274.34;4983251;28;20059;-74
2023/09/28 01:38:25;;;;;;;8.05;5.13;;;;;;;17.90;100.00;101277.22;4969523;28;20094;-75
2023/09/28 01:40:51;;;;;;;6.90;5.20;;;;;;;17.98;100.00;101277.44;4969532;28;20047;-73
2023/09/28 01:43:16;;;;;;;12.05;5.53;;;;;;;17.96;100.00;101271.28;4969528;28;20061;-75
2023/09/28 01:45:42;;;;;;;8.43;5.72;;;;;;;17.88;100.00;101271.13;4970715;28;20035;-74
2023/09/28 01:48:08;;;;;;;10.38;5.55;;;;;;;17.94;100.00;101276.84;4966971;28;20122;-74
2023/09/28 01:50:34;;;;;;;9.35;5.38;;;;;;;17.94;100.00;101273.28;4969292;28;20035;-74
2023/09/28 01:53:00;;;;;;;9.35;5.50;;;;;;;17.91;100.00;101289.72;4971512;28;21207;-75
2023/09/28 01:55:26;;;;;;;10.35;6.00;;;;;;;17.84;100.00;101279.47;4969687;28;20126;-74
2023/09/28 01:57:52;;;;;;;9.57;5.45;;;;;;;17.82;100.00;101281.47;4969309;28;20031;-74
2023/09/28 02:00:22;;;;;;;9.95;5.22;;;;;;;17.84;100.00;101284.88;4966563;28;20748;-74
2023/09/28 02:02:50;;;;;;;10.50;5.60;;;;;;;17.85;100.00;101285.72;4969924;28;20127;-74
2023/09/28 02:05:21;;;;;;;8.40;5.68;;;;;;;17.83;100.00;101287.72;4971163;28;20035;-74
2023/09/28 02:07:47;;;;;;;8.40;5.57;;;;;;;17.74;100.00;101286.66;4969534;28;20043;-74
2023/09/28 02:10:14;;;;;;;8.80;5.70;;;;;;;17.74;100.00;101291.19;4972030;28;21002;-74
2023/09/28 02:12:41;;;;;;;9.60;5.55;;;;;;;17.73;100.00;101287.66;4971185;28;20043;-73
2023/09/28 02:15:09;;;;;;;9.88;5.50;;;;;;;17.71;100.00;101308.47;4972278;28;20114;-74
2023/09/28 02:17:36;;;;;;;9.48;5.82;;;;;;;17.73;100.00;101308.38;4971132;28;20114;-73
2023/09/28 02:20:09;;;;;;;7.47;5.60;;;;;;;17.72;100.00;101303.91;4980194;28;20042;-75
2023/09/28 02:22:44;;;;;;;9.45;5.60;;;;;;;17.68;100.00;101308.75;4968838;28;20038;-73
2023/09/28 02:25:15;;;;;;;9.95;5.95;;;;;;;17.63;100.00;101304.72;4969058;28;20050;-74
2023/09/28 02:27:42;;;;;;;;;;;;;;;17.62;100.00;101303.88;4970113;28;20154;-75
2023/09/28 02:30:11;;;;;;;8.55;5.93;;;;;;;17.51;100.00;101307.47;4974533;28;19989;-74
2023/09/28 02:32:40;;;;;;;10.63;5.80;;;;;;;17.61;100.00;101313.78;4970544;28;20081;-75
2023/09/28 02:35:10;;;;;;;6.80;6.07;;;;;;;17.60;100.00;101311.22;4972544;28;20053;-74
2023/09/28 02:37:35;;;;;;;9.57;6.07;;;;;;;17.49;100.00;101314.84;4990277;28;20092;-74
2023/09/28 02:40:05;;;;;;;12.57;6.40;;;;;;;17.58;100.00;101321.31;4976810;28;20745;-74
2023/09/28 02:42:33;;;;;;;10.40;6.00;;;;;;;17.57;100.00;101314.19;4991782;28;20039;-75
2023/09/28 02:44:59;;;;;;;9.98;5.82;;;;;;;17.51;100.00;101329.03;4975269;28;21017;-74
2023/09/28 02:47:24;;;;;;;7.53;6.05;;;;;;;17.48;100.00;101329.31;4993365;28;20122;-74
2023/09/28 02:49:51;;;;;;;11.68;6.10;;;;;;;17.52;100.00;101324.50;4971813;28;20039;-74
2023/09/28 02:52:18;;;;;;;12.00;6.47;;;;;;;17.49;100.00;101330.19;4990911;28;20047;-74
2023/09/28 02:54:44;;;;;;;10.55;6.97;;;;;;;17.38;100.00;101322.16;4988290;28;20046;-74
2023/09/28 02:57:10;;;;;;;10.88;6.47;;;;;;;17.38;100.00;101332.94;4983361;28;20050;-73
2023/09/28 02:59:36;;;;;;;11.48;6.78;;;;;;;17.42;100.00;101329.84;4965927;28;20041;-74
2023/09/28 03:02:05;;;;;;;12.70;6.43;;;;;;;17.37;100.00;101340.16;4966931;28;20034;-74
2023/09/28 03:04:33;;;;;;;7.80;6.40;;;;;;;17.28;100.00;101332.84;4991490;28;20030;-74
2023/09/28 03:06:59;;;;;;;11.45;6.13;;;;;;;17.27;100.00;101340.06;4986969;28;20035;-75
2023/09/28 03:09:26;;;;;;;14.18;7.28;;;;;;;17.28;100.00;101343.63;4989384;28;20141;-73
2023/09/28 03:11:53;;;;;;;11.05;8.18;;;;;;;17.19;100.00;101345.25;4994031;28;20035;-74
2023/09/28 03:14:21;;;;;;;9.38;6.82;;;;;;;17.24;100.00;101351.09;4973854;28;20042;-74
2023/09/28 03:16:48;;;;;;;11.65;8.07;;;;;;;17.17;100.00;101343.63;4990844;28;20838;-74
2023/09/28 03:19:13;;;;;;;10.25;7.45;;;;;;;17.20;100.00;101329.91;4993423;28;20089;-74
2023/09/28 03:21:41;;;;;;;10.40;7.72;;;;;;;17.04;100.00;101331.19;4992054;28;20049;-73
2023/09/28 03:24:08;;;;;;;12.43;7.97;;;;;;;17.00;100.00;101334.28;4993901;28;21045;-74
2023/09/28 03:26:34;;;;;;;14.02;8.07;;;;;;;17.01;100.00;101336.81;4992363;28;20081;-73
2023/09/28 03:28:59;;;;;;;12.70;8.10;;;;;;;17.05;100.00;101337.44;4991071;28;20134;-74
2023/09/28 03:31:29;;;;;;;11.38;8.18;;;;;;;17.02;100.00;101337.72;4989467;28;20034;-74
2023/09/28 03:33:54;;;;;;;12.23;7.43;;;;;;;16.99;100.00;101346.03;4987261;28;20400;-75
2023/09/28 03:36:21;;;;;;;16.23;8.93;;;;;;;16.98;100.00;101349.72;4989171;28;20050;-74
2023/09/28 03:38:47;;;;;;;10.93;8.10;;;;;;;16.92;100.00;101358.28;4989243;28;20673;-75
2023/09/28 03:41:13;;;;;;;13.13;8.88;;;;;;;16.91;100.00;101367.34;4989513;28;20153;-73
2023/09/28 03:43:39;;;;;;;11.95;8.45;;;;;;;16.83;100.00;101365.28;4982235;28;20034;-74
2023/09/28 03:46:05;;;;;;;13.23;8.45;;;;;;;16.80;100.00;101373.63;4985112;28;20837;-74
2023/09/28 03:48:30;;;;;;;16.67;8.43;;;;;;;16.70;100.00;101376.16;4996854;28;20108;-73
2023/09/28 03:50:56;;;;;;;10.30;8.32;;;;;;;16.83;100.00;101370.69;4975420;28;20428;-74
2023/09/28 03:53:22;;;;;;;14.52;8.60;;;;;;;16.77;100.00;101380.13;4990154;28;20114;-74
2023/09/28 03:55:49;;;;;;;14.82;8.75;;;;;;;16.77;100.00;101380.13;4991095;28;20073;-74
2023/09/28 03:58:15;;;;;;;11.75;8.13;;;;;;;16.86;100.00;101383.03;4989068;28;20045;-73
2023/09/28 04:00:41;;;;;;;18.15;8.15;;;;;;;16.78;100.00;101389.06;4982186;28;20102;-74
2023/09/28 04:03:07;;;;;;;16.70;9.32;;;;;;;16.79;100.00;101382.69;4988583;28;20468;-75
2023/09/28 04:05:33;;;;;;;11.45;8.55;;;;;;;16.72;100.00;101382.34;4982548;28;20043;-74
2023/09/28 04:07:58;;;;;;;12.02;8.95;;;;;;;16.76;100.00;101393.69;4992687;28;20034;-73
2023/09/28 04:10:24;;;;;;;13.13;9.70;;;;;;;16.68;100.00;101396.13;4989038;28;20035;-75
2023/09/28 04:12:49;;;;;;;12.90;9.57;;;;;;;16.70;100.00;101400.41;4984395;28;20057;-75
2023/09/28 04:15:16;;;;;;;17.30;9.57;;;;;;;16.73;100.00;101402.03;4992107;28;20038;-73
2023/09/28 04:17:41;;;;;;;11.80;8.80;;;;;;;16.72;100.00;101408.41;4991820;28;20168;-74
2023/09/28 04:20:09;;;;;;;14.23;9.77;;;;;;;16.67;100.00;101402.50;4992954;28;20121;-74
2023/09/28 04:22:35;;;;;;;11.90;9.35;;;;;;;16.69;100.00;101414.84;4991905;28;20046;-75
2023/09/28 04:25:01;;;;;;;11.75;9.23;;;;;;;16.70;100.00;101421.09;4992360;28;20053;-74
2023/09/28 04:27:27;;;;;;;14.13;9.77;;;;;;;16.65;100.00;101421.47;4968311;28;20041;-74
2023/09/28 04:29:52;;;;;;;13.38;9.52;;;;;;;16.60;100.00;101420.97;4985339;28;20056;-74
2023/09/28 04:32:18;;;;;;;17.70;10.65;;;;;;;16.60;100.00;101420.97;4991404;28;20805;-75
2023/09/28 04:34:44;;;;;;;12.38;9.40;;;;;;;16.67;100.00;101422.22;4974552;28;20057;-74
2023/09/28 04:37:09;;;;;;;12.60;9.43;;;;;;;16.62;100.00;101419.03;4988901;28;20061;-73
2023/09/28 04:39:35;;;;;;;17.42;11.00;;;;;;;16.58;100.00;101418.41;4993235;28;20038;-74
2023/09/28 04:42:00;;;;;;;15.70;11.25;;;;;;;16.59;100.00;101424.66;4991240;28;20073;-73
2023/09/28 04:44:27;;;;;;;19.45;12.05;;;;;;;16.55;100.00;101421.31;4988327;28;20039;-74
2023/09/28 04:46:53;;;;;;;18.55;12.88;;;;;;;16.54;100.00;101416.94;4988698;28;20034;-74
2023/09/28 04:49:18;;;;;;;13.43;11.02;;;;;;;16.50;100.00;101428.06;4977935;28;20043;-75
2023/09/28 04:51:45;;;;;;;16.83;11.10;;;;;;;16.43;100.00;101421.47;4991551;28;20117;-74
2023/09/28 04:54:10;;;;;;;16.35;10.52;;;;;;;16.41;100.00;101407.25;4985459;28;20050;-74
2023/09/28 04:56:36;;;;;;;16.35;12.18;;;;;;;16.42;100.00;101414.38;4964294;28;20145;-74
2023/09/28 04:59:02;;;;;;;15.75;11.50;;;;;;;16.40;100.00;101413.59;4985040;28;20362;-74
2023/09/28 05:01:28;;;;;;;23.90;13.38;;;;;;;16.36;100.00;101420.22;4986235;28;20041;-74
2023/09/28 05:03:54;;;;;;;16.10;12.77;;;;;;;16.41;100.00;101412.63;4973642;28;20069;-74
2023/09/28 05:06:27;;;;;;;19.60;14.63;;;;;;;16.34;100.00;101422.19;5054655;27;20605;-74
2023/09/28 05:08:53;;;;;;;18.75;13.50;;;;;;;16.34;100.00;101428.41;5044742;28;20831;-74
2023/09/28 05:11:18;;;;;;;22.10;13.60;;;;;;;16.26;100.00;101429.00;5048601;28;20049;-75
2023/09/28 05:13:44;;;;;;;17.17;13.20;;;;;;;16.26;100.00;101436.22;5047635;28;20073;-75
2023/09/28 05:16:09;;;;;;;19.58;12.18;;;;;;;16.19;100.00;101432.31;5050293;28;20049;-74
2023/09/28 05:18:36;;;;;;;21.50;12.68;;;;;;;16.20;100.00;101440.25;5045835;28;20037;-75
2023/09/28 05:21:01;;;;;;;21.13;13.88;;;;;;;16.24;100.00;101439.03;5046443;28;20037;-74
2023/09/28 05:23:26;;;;;;;16.02;13.02;;;;;;;16.23;100.00;101458.84;5041668;28;20046;-75
2023/09/28 05:25:52;;;;;;;17.67;13.90;;;;;;;16.20;100.00;101467.16;5040673;28;20051;-75
2023/09/28 05:28:18;;;;;;;16.13;12.32;;;;;;;16.18;100.00;101462.88;5045559;28;20037;-74
2023/09/28 05:30:43;;;;;;;20.50;14.05;;;;;;;16.19;100.00;101470.81;5049458;28;20494;-74
2023/09/28 05:33:08;;;;;;;18.17;13.63;;;;;;;16.17;100.00;101472.78;5041918;28;20037;-75
2023/09/28 05:35:34;;;;;;;24.75;13.07;;;;;;;16.10;100.00;101473.38;5045329;28;22672;-75
2023/09/28 05:37:59;;;;;;;24.55;15.48;;;;;;;16.10;100.00;101484.13;5042491;28;20052;-75
2023/09/28 05:40:26;;;;;;;20.58;13.55;;;;;;;16.12;100.00;101488.44;5037521;28;20044;-75
2023/09/28 05:42:51;;;;;;;21.40;14.43;;;;;;;16.22;100.00;101491.28;5046266;28;20041;-74
2023/09/28 05:45:17;;;;;;;26.23;13.75;;;;;;;16.15;100.00;101496.25;5043897;28;20046;-75
2023/09/28 05:47:42;;;;;;;17.98;11.77;;;;;;;16.24;100.00;101498.25;5038830;28;20041;-76
2023/09/28 05:50:08;;;;;;;14.15;10.25;;;;;;;16.26;100.00;101498.97;5042146;28;20121;-74
2023/09/28 05:52:34;;;;;;;18.88;10.75;;;;;;;16.37;100.00;101494.63;5035924;28;21095;-75
2023/09/28 05:54:59;;;;;;;18.58;9.73;;;;;;;16.39;100.00;101506.97;5043903;28;20632;-74
2023/09/28 05:57:25;;;;;;;15.07;9.32;;;;;;;16.50;100.00;101503.44;5040344;28;20133;-75
2023/09/28 05:59:50;;;;;;;17.48;9.02;;;;;;;16.56;100.00;101506.50;5049989;28;20037;-75
2023/09/28 06:02:16;;;;;;;16.83;9.07;;;;;;;16.55;100.00;101509.34;5039186;28;20147;-75
2023/09/28 06:04:42;;;;;;;18.75;8.82;;;;;;;16.57;100.00;101513.63;5049101;28;20042;-75
2023/09/28 06:07:10;;;;;;;14.48;8.35;;;;;;;16.66;100.00;101522.81;5048120;28;20110;-74
2023/09/28 06:09:35;;;;;;;15.75;8.60;;;;;;;16.65;100.00;101531.00;5045545;28;20068;-75
2023/09/28 06:12:02;;;;;;;22.27;9.15;;;;;;;16.68;100.00;101522.72;5043623;28;20100;-76
2023/09/28 06:14:27;;;;;;;15.45;8.77;;;;;;;16.70;100.00;101526.97;5046186;28;20085;-73
2023/09/28 06:16:53;;;;;;;22.65;7.50;;;;;;;16.80;100.00;101536.09;5039823;28;20044;-75
2023/09/28 06:19:19;;;;;;;21.17;7.97;;;;;;;16.83;100.00;101538.56;5022465;28;20119;-75
2023/09/28 06:21:44;;;;;;;19.05;8.07;;;;;;;16.84;100.00;101534.03;5026860;28;20037;-74
2023/09/28 06:24:10;;;;;;;17.17;7.80;;;;;;;16.92;100.00;101538.78;5026019;28;20029;-75
2023/09/28 06:26:37;;;;;;;17.85;7.85;;;;;;;16.97;100.00;101536.63;5032112;28;20034;-74
2023/09/28 06:29:03;;;;;;;14.95;8.40;;;;;;;17.02;100.00;101537.97;5028943;28;20147;-75
2023/09/28 06:31:29;;;;;;;19.13;7.75;;;;;;;17.13;100.00;101539.81;5036863;28;20040;-75
2023/09/28 06:33:54;;;;;;;18.25;9.63;;;;;;;17.21;100.00;101536.47;5026538;28;20084;-75
2023/09/28 06:36:20;;;;;;;19.35;8.65;;;;;;;17.26;100.00;101545.91;5029348;28;20041;-75
2023/09/28 06:38:47;;;;;;;12.23;7.65;;;;;;;17.42;100.00;101532.06;5026312;28;20045;-75
2023/09/28 06:41:13;;;;;;;15.70;8.60;;;;;;;17.51;100.00;101528.59;5024171;28;20033;-74
2023/09/28 06:43:39;;;;;;;20.98;9.50;;;;;;;17.63;100.00;101521.38;5023990;28;20108;-75
2023/09/28 06:46:04;;;;;;;17.77;8.88;;;;;;;17.73;100.00;101521.50;5027171;28;20050;-75
2023/09/28 06:48:30;;;;;;;21.08;9.55;;;;;;;17.80;100.00;101512.75;5028782;28;20099;-75
2023/09/28 06:50:57;;;;;;;20.70;9.40;;;;;;;17.97;100.00;101515.88;5026779;28;20050;-75
2023/09/28 06:53:26;;;;;;;21.77;9.75;;;;;;;18.00;100.00;101523.72;5024012;28;20033;-75
2023/09/28 06:55:53;;;;;;;22.85;8.75;;;;;;;18.12;100.00;101525.38;5026454;28;20058;-74
2023/09/28 06:58:19;;;;;;;20.88;8.77;;;;;;;18.25;100.00;101526.06;5033100;28;20053;-75
2023/09/28 07:00:45;;;;;;;17.00;8.63;;;;;;;18.42;100.00;101526.47;5015679;28;20100;-75
2023/09/28 07:03:11;;;;;;;13.65;8.07;;;;;;;18.45;100.00;101531.63;5034509;28;20037;-74
2023/09/28 07:05:37;;;;;;;16.67;8.25;;;;;;;18.63;100.00;101530.03;5033624;28;20053;-75
2023/09/28 07:08:05;;;;;;;16.90;8.68;;;;;;;18.53;100.00;101529.13;5034121;28;20041;-75
2023/09/28 07:10:35;;;;;;;20.13;9.10;;;;;;;18.86;100.00;101533.47;5034110;28;20038;-74
2023/09/28 07:13:02;;;;;;;18.38;7.82;;;;;;;18.93;100.00;101531.97;5031761;28;20036;-74
2023/09/28 07:15:31;;;;;;;34.80;9.38;;;;;;;19.05;100.00;101536.28;5032833;28;20041;-74
2023/09/28 07:17:57;;;;;;;18.58;8.35;;;;;;;19.11;100.00;101548.38;5031146;28;20037;-74
2023/09/28 07:20:25;;;;;;;23.52;8.45;;;;;;;19.19;100.00;101553.97;5034766;28;20048;-74
2023/09/28 07:22:51;;;;;;;23.95;7.93;;;;;;;19.29;100.00;101543.22;5030150;28;20192;-74
2023/09/28 07:25:16;;;;;;;22.83;7.63;;;;;;;19.49;100.00;101557.66;5031397;28;20173;-75
2023/09/28 07:27:43;;;;;;;21.40;7.30;;;;;;;19.38;100.00;101556.78;5036564;28;20072;-75
2023/09/28 07:30:11;;;;;;;22.40;8.35;;;;;;;19.61;100.00;101552.00;5028375;28;20153;-75
2023/09/28 07:32:37;;;;;;;30.98;8.25;;;;;;;19.96;100.00;101547.09;5033273;28;20051;-74
2023/09/28 07:35:03;;;;;;;22.80;7.50;;;;;;;20.12;100.00;101550.94;5021047;28;20041;-74
2023/09/28 07:37:28;;;;;;;27.33;7.55;;;;;;;20.44;100.00;101560.66;5029473;28;20048;-75
2023/09/28 07:39:54;;;;;;;24.17;7.05;;;;;;;20.72;100.00;101567.06;5030311;28;22082;-75
2023/09/28 07:42:20;;;;;;;22.98;7.18;;;;;;;20.86;100.00;101566.59;5030993;28;20136;-75
2023/09/28 07:44:51;;;;;;;23.77;7.25;;;;;;;21.07;100.00;101560.13;5023482;28;20796;-75
2023/09/28 07:47:18;;;;;;;21.48;6.05;;;;;;;21.59;100.00;101555.94;5033250;28;20029;-75
2023/09/28 07:49:45;;;;;;;28.92;6.85;;;;;;;21.11;100.00;101562.38;5024874;28;20045;-75
2023/09/28 07:52:11;;;;;;;21.35;6.68;;;;;;;20.57;100.00;101557.66;5022920;28;20033;-74
2023/09/28 07:54:37;;;;;;;33.00;7.47;;;;;;;20.30;100.00;101561.94;5022610;28;20855;-75
2023/09/28 07:57:04;;;;;;;28.17;6.45;;;;;;;19.83;100.00;101569.88;5031830;28;20232;-74
2023/09/28 07:59:34;;;;;;;31.90;6.68;;;;;;;19.78;100.00;101579.41;5018302;28;20042;-74
2023/09/28 08:02:00;;;;;;;32.85;7.32;;;;;;;19.55;100.00;101576.91;5024366;28;20037;-75
2023/09/28 08:04:26;;;;;;;29.38;6.88;;;;;;;19.53;100.00;101587.00;5033433;28;20132;-75
2023/09/28 08:06:52;;;;;;;32.75;6.88;;;;;;;19.56;100.00;101588.56;5027959;28;20048;-74
2023/09/28 08:09:19;;;;;;;31.95;7.03;;;;;;;19.71;100.00;101603.47;5030425;28;20156;-74
2023/09/28 08:11:49;;;;;;;27.02;6.47;;;;;;;19.64;100.00;101621.25;5026787;28;20038;-76
2023/09/28 08:14:15;;;;;;;30.83;6.45;;;;;;;19.51;100.00;101621.44;5030965;28;20070;-74
2023/09/28 08:16:44;;;;;;;31.65;6.57;;;;;;;19.51;100.00;101623.28;5023485;28;20052;-76
2023/09/28 08:19:10;;;;;;;43.33;6.70;;;;;;;19.57;100.00;101625.44;5023386;28;20046;-74
2023/09/28 08:21:38;;;;;;;38.25;6.85;;;;;;;19.52;100.00;101627.72;5054837;28;20053;-74
2023/09/28 08:24:05;;;;;;;40.80;7.90;;;;;;;19.57;100.00;101630.84;5030740;28;20072;-74
2023/09/28 08:26:31;;;;;;;41.17;8.00;;;;;;;19.44;100.00;101630.25;5025656;28;20959;-76
2023/09/28 08:29:00;;;;;;;38.25;7.47;;;;;;;19.42;100.00;101633.06;5043839;28;20038;-74
2023/09/28 08:31:26;;;;;;;32.47;7.43;;;;;;;19.44;100.00;101633.81;5027096;28;20143;-76
2023/09/28 08:33:52;;;;;;;31.48;7.00;;;;;;;19.61;100.00;101616.97;5033391;28;20041;-75
2023/09/28 08:36:18;;;;;;;34.20;7.13;;;;;;;19.57;100.00;101620.88;5022541;28;20073;-73
2023/09/28 08:38:44;;;;;;;26.52;6.95;;;;;;;19.65;100.00;101623.81;5025773;28;20037;-74
2023/09/28 08:41:10;;;;;;;35.58;7.50;;;;;;;19.56;100.00;101619.19;5029570;28;20037;-76
2023/09/28 08:44:02;;;;;;;30.58;6.25;;;;;;;19.72;100.00;101613.28;5026813;28;20034;-75
2023/09/28 08:46:31;;;;;;;35.28;6.28;;;;;;;19.82;100.00;101616.88;5030178;28;20161;-75
2023/09/28 08:48:59;;;;;;;40.50;7.70;;;;;;;19.76;100.00;101605.75;5027728;28;20088;-74
2023/09/28 08:51:25;;;;;;;30.98;6.82;;;;;;;19.72;100.00;101607.03;5019638;28;20120;-75
2023/09/28 08:53:52;;;;;;;33.83;6.85;;;;;;;19.73;100.00;101622.25;5018361;28;20034;-75
2023/09/28 08:56:19;;;;;;;33.45;7.32;;;;;;;20.04;100.00;101621.22;5036017;28;20043;-75
2023/09/28 08:58:45;;;;;;;36.38;7.75;;;;;;;20.24;100.00;101622.09;5021707;28;20832;-75
2023/09/28 09:01:12;;;;;;;37.08;6.80;;;;;;;20.38;100.00;101646.06;5026277;28;20106;-75
2023/09/28 09:03:39;;;;;;;38.03;7.57;;;;;;;20.21;100.00;101641.34;5031326;28;20848;-76
2023/09/28 09:06:08;;;;;;;36.13;6.50;;;;;;;20.01;100.00;101640.44;5032315;28;20056;-75
2023/09/28 09:08:38;;;;;;;40.33;6.97;;;;;;;20.07;100.00;101648.00;5027146;28;20121;-76
2023/09/28 09:11:04;;;;;;;23.23;6.35;;;;;;;20.48;100.00;101648.78;5027305;28;20045;-75
2023/09/28 09:13:30;;;;;;;31.45;7.13;;;;;;;20.66;99.59;101648.97;5032632;28;20065;-74
2023/09/28 09:15:56;;;;;;;25.55;5.97;;;;;;;20.86;98.12;101650.66;5029845;28;20105;-74
2023/09/28 09:18:24;;;;;;;25.23;6.13;;;;;;;21.05;96.46;101651.63;5030996;28;20631;-74
2023/09/28 09:20:57;;;;;;;31.17;6.18;;;;;;;21.41;94.77;101650.00;5033039;28;20029;-75
2023/09/28 09:23:24;;;;;;;28.38;7.10;;;;;;;21.60;91.30;101654.50;5033128;28;20033;-75
2023/09/28 09:25:56;;;;;;;47.95;7.05;;;;;;;21.41;89.34;101642.72;5036418;28;20531;-75
2023/09/28 09:28:30;;;;;;;36.78;6.72;;;;;;;21.16;89.50;101656.88;5018254;28;20038;-75
2023/09/28 09:30:56;;;;;;;29.25;6.43;;;;;;;21.29;90.95;101673.72;5016659;28;20033;-75
2023/09/28 09:33:22;;;;;;;31.17;6.18;;;;;;;21.05;91.54;101657.91;5029353;28;20038;-75
2023/09/28 09:35:50;;;;;;;29.77;6.45;;;;;;;21.41;91.01;101652.72;5021250;28;20041;-74
2023/09/28 09:38:21;;;;;;;35.90;7.30;;;;;;;20.90;90.15;101653.94;5025336;28;20581;-75
2023/09/28 09:40:57;;;;;;;31.77;7.33;;;;;;;21.05;91.28;101667.91;5027358;28;20144;-74
2023/09/28 09:43:22;;;;;;;30.52;6.47;;;;;;;20.98;90.77;101673.03;5031683;28;20030;-74
2023/09/28 09:45:48;;;;;;;27.58;6.85;;;;;;;21.06;88.53;101662.34;5025990;28;20952;-75
2023/09/28 09:48:14;;;;;;;23.17;7.03;;;;;;;21.07;88.04;101669.47;5020566;28;20041;-75
2023/09/28 09:50:40;;;;;;;28.50;7.28;;;;;;;21.32;88.86;101680.72;5021007;28;20046;-74
2023/09/28 09:53:07;;;;;;;32.30;7.20;;;;;;;20.93;87.74;101686.16;5028844;28;20030;-75
2023/09/28 09:55:35;;;;;;;29.13;7.07;;;;;;;21.00;87.93;101683.75;5030313;28;20064;-76
2023/09/28 09:58:02;;;;;;;26.60;7.05;;;;;;;21.17;87.88;101678.44;5021423;28;20045;-75
2023/09/28 10:00:31;;;;;;;25.23;6.43;;;;;;;21.29;86.70;101678.28;5031326;28;20025;-74
2023/09/28 10:03:00;;;;;;;24.00;6.88;;;;;;;21.07;85.52;101672.16;5020275;28;20034;-75
2023/09/28 10:05:27;;;;;;;28.92;6.47;;;;;;;21.06;86.62;101666.91;5029146;28;20053;-75
2023/09/28 10:07:55;;;;;;;24.80;6.28;;;;;;;20.97;85.35;101671.34;5022675;28;20037;-77
2023/09/28 10:10:22;;;;;;;29.42;6.88;;;;;;;20.93;85.80;101665.38;5022749;28;20095;-75
2023/09/28 10:12:49;;;;;;;31.83;6.35;;;;;;;20.82;87.37;101667.34;5042469;28;20150;-74
2023/09/28 10:15:16;;;;;;;31.55;7.32;;;;;;;20.93;88.64;101657.22;5021838;28;20064;-75
2023/09/28 10:17:44;;;;;;;23.20;6.50;;;;;;;20.93;87.01;101676.22;5027499;28;20132;-75
2023/09/28 10:20:13;;;;;;;30.15;6.90;;;;;;;20.89;86.68;101669.34;5049085;28;20118;-76
2023/09/28 10:22:44;;;;;;;32.13;7.32;;;;;;;21.07;87.10;101657.75;5029035;28;20022;-75
2023/09/28 10:25:15;;;;;;;33.17;7.90;;;;;;;21.13;87.67;101657.16;5033740;28;20187;-76
2023/09/28 10:27:44;;;;;;;23.15;7.05;;;;;;;21.05;87.45;101654.34;5059376;28;20042;-75
2023/09/28 10:30:22;;;;;;;35.60;7.30;;;;;;;21.06;85.68;101659.63;5025031;28;20034;-75
2023/09/28 10:32:52;;;;;;;25.23;6.22;;;;;;;21.17;87.07;101658.59;5028613;28;20042;-75
2023/09/28 10:35:20;;;;;;;29.95;6.78;;;;;;;21.43;86.61;101658.84;5021033;28;20042;-74
2023/09/28 10:38:17;;;;;;;28.10;5.93;;;;;;;21.41;86.71;101645.41;5025847;28;20053;-75
2023/09/28 10:40:44;;;;;;;25.35;6.32;;;;;;;21.35;86.84;101651.44;5030677;28;20044;-76
2023/09/28 10:43:10;;;;;;;28.25;5.95;;;;;;;21.77;87.41;101650.97;5032582;28;20168;-75
2023/09/28 10:45:37;;;;;;;29.17;7.03;;;;;;;21.51;84.80;101656.25;5033025;28;20038;-75
2023/09/28 10:48:07;;;;;;;28.60;7.53;;;;;;;21.45;86.14;101654.97;5026497;28;20038;-74
2023/09/28 10:50:37;;;;;;;29.70;6.85;;;;;;;21.55;85.85;101656.81;5028254;28;20035;-76
2023/09/28 10:53:03;;;;;;;24.38;6.63;;;;;;;21.72;86.14;101664.16;5022192;28;20071;-75
2023/09/28 10:55:28;;;;;;;38.05;7.13;;;;;;;21.54;84.70;101653.25;5023404;28;20036;-75
2023/09/28 10:57:54;;;;;;;32.33;6.63;;;;;;;21.50;85.54;101653.69;5025919;28;20072;-75
2023/09/28 11:00:23;;;;;;;21.23;5.93;;;;;;;21.87;84.80;101662.66;5029288;28;20030;-74
2023/09/28 11:02:48;;;;;;;23.83;6.55;;;;;;;21.67;81.95;101666.47;5029975;28;20026;-75
2023/09/28 11:05:14;;;;;;;23.08;5.55;;;;;;;21.50;80.73;101672.69;5028473;28;20902;-75
2023/09/28 11:07:40;;;;;;;22.00;6.95;;;;;;;21.62;82.72;101669.63;5028544;28;20584;-75
2023/09/28 11:10:08;;;;;;;22.92;5.90;;;;;;;21.64;82.15;101667.63;5030944;28;20071;-76
2023/09/28 11:12:34;;;;;;;24.13;6.53;;;;;;;21.57;81.60;101665.66;5026608;28;20099;-75